Time;durP1;ratioP1;P1;durP2;ratioP2;P2;SDS_P1;SDS_P2;PMS_P1;PMS_P2;Temp;Humidity;BMP_temperature;BMP_pressure;BME280_temperature;BME280_humidity;BME280_pressure;Samples;Min_cycle;Max_cycle;Signal;HPM_P1;HPM_P2
2023/03/01 00:01:58;;;;;;;17.17;13.60;;;;;;;1.13;100.00;103178.75;4931954;29;20031;-83
2023/03/01 00:04:23;;;;;;;18.80;14.38;;;;;;;1.05;100.00;103168.16;4916247;29;20094;-82
2023/03/01 00:06:49;;;;;;;21.73;12.38;;;;;;;1.09;100.00;103172.91;4916391;29;20503;-82
2023/03/01 00:09:15;;;;;;;20.45;14.18;;;;;;;1.07;100.00;103164.03;4934823;29;20472;-82
2023/03/01 00:11:40;;;;;;;21.88;13.23;;;;;;;1.08;100.00;103159.38;4934845;29;20019;-82
2023/03/01 00:14:06;;;;;;;21.20;13.45;;;;;;;1.09;100.00;103166.56;4940147;29;20051;-82
2023/03/01 00:16:39;;;;;;;20.88;13.77;;;;;;;1.02;100.00;103164.81;4939005;29;20031;-82
2023/03/01 00:19:06;;;;;;;22.15;14.57;;;;;;;1.01;100.00;103171.44;4931123;29;20455;-82
2023/03/01 00:21:32;;;;;;;20.17;12.95;;;;;;;1.02;100.00;103167.56;4940438;29;20054;-82
2023/03/01 00:23:58;;;;;;;20.45;14.27;;;;;;;0.97;100.00;103167.53;4934714;29;20507;-82
2023/03/01 00:26:25;;;;;;;18.92;12.93;;;;;;;0.93;100.00;103157.28;4918363;29;20034;-81
2023/03/01 00:28:51;;;;;;;19.08;13.65;;;;;;;1.01;100.00;103165.94;4934899;28;20027;-82
2023/03/01 00:31:19;;;;;;;17.58;13.48;;;;;;;0.93;100.00;103155.34;4942967;29;20032;-82
2023/03/01 00:33:45;;;;;;;19.88;12.80;;;;;;;0.94;100.00;103148.72;4941772;29;20023;-82
2023/03/01 00:36:13;;;;;;;20.58;13.90;;;;;;;0.87;100.00;103148.09;4923226;29;20373;-82
2023/03/01 00:38:41;;;;;;;19.15;13.93;;;;;;;0.88;100.00;103144.22;4921411;29;20031;-81
2023/03/01 00:41:09;;;;;;;19.73;13.35;;;;;;;0.93;100.00;103146.25;4934643;29;20027;-81
2023/03/01 00:43:36;;;;;;;18.48;13.25;;;;;;;0.89;100.00;103150.59;4934164;29;20551;-82
2023/03/01 00:46:06;;;;;;;19.10;14.15;;;;;;;0.88;100.00;103148.91;4933636;29;20019;-82
2023/03/01 00:48:33;;;;;;;19.10;13.32;;;;;;;0.84;100.00;103150.53;4949929;28;20121;-82
2023/03/01 00:51:09;;;;;;;24.38;14.52;;;;;;;0.84;100.00;103143.06;4938860;29;20058;-81
2023/03/01 00:53:35;;;;;;;19.88;13.85;;;;;;;0.83;100.00;103152.44;4934936;29;20049;-81
2023/03/01 00:56:00;;;;;;;20.77;13.77;;;;;;;0.82;100.00;103145.25;4947360;29;20027;-82
2023/03/01 00:58:26;;;;;;;17.88;12.38;;;;;;;0.83;100.00;103140.59;4934280;28;20031;-81
2023/03/01 01:00:52;;;;;;;24.15;14.82;;;;;;;0.77;100.00;103128.66;4951895;29;20031;-81
2023/03/01 01:03:18;;;;;;;25.00;14.25;;;;;;;0.78;100.00;103133.06;4934705;29;20020;-81
2023/03/01 01:05:43;;;;;;;21.45;13.65;;;;;;;0.78;100.00;103138.59;4929080;29;20020;-81
2023/03/01 01:08:09;;;;;;;26.80;14.68;;;;;;;0.78;100.00;103133.06;4934202;29;20062;-81
2023/03/01 01:10:34;;;;;;;18.50;13.10;;;;;;;0.76;100.00;103129.72;4944530;28;20026;-81
2023/03/01 01:13:00;;;;;;;19.17;13.32;;;;;;;0.70;100.00;103139.06;4943623;28;20028;-82
2023/03/01 01:15:26;;;;;;;22.10;13.50;;;;;;;0.68;100.00;103132.97;4938263;29;20047;-81
2023/03/01 01:17:51;;;;;;;20.60;15.18;;;;;;;0.71;100.00;103138.78;4932311;29;20038;-81
2023/03/01 01:20:17;;;;;;;21.42;14.40;;;;;;;0.70;100.00;103131.59;4933742;29;20027;-82
2023/03/01 01:22:42;;;;;;;21.75;14.05;;;;;;;0.66;100.00;103126.88;4933615;29;20411;-81
2023/03/01 01:25:08;;;;;;;27.20;16.75;;;;;;;0.65;100.00;103128.78;4931422;29;20587;-82
2023/03/01 01:27:34;;;;;;;22.35;14.30;;;;;;;0.66;100.00;103135.97;4950227;29;20106;-81
2023/03/01 01:29:59;;;;;;;19.90;13.60;;;;;;;0.66;100.00;103133.22;4951165;29;20436;-81
2023/03/01 01:32:24;;;;;;;23.35;15.20;;;;;;;0.61;100.00;103119.34;4929476;29;20494;-81
2023/03/01 01:34:50;;;;;;;29.38;15.68;;;;;;;0.63;100.00;103119.09;4934242;29;20026;-81
2023/03/01 01:37:15;;;;;;;27.58;16.30;;;;;;;0.64;100.00;103115.25;4931348;29;20023;-81
2023/03/01 01:39:41;;;;;;;21.60;15.13;;;;;;;0.66;100.00;103121.34;4934403;29;20019;-81
2023/03/01 01:42:14;;;;;;;26.73;16.38;;;;;;;0.61;100.00;103122.09;4950389;29;20094;-81
2023/03/01 01:44:40;;;;;;;23.05;15.38;;;;;;;0.62;100.00;103107.25;4945186;28;20049;-81
2023/03/01 01:47:12;;;;;;;26.42;16.13;;;;;;;0.59;100.00;103107.75;4930465;29;20071;-81
2023/03/01 01:49:38;;;;;;;;;;;;;;;0.60;100.00;103113.00;4918493;29;20039;-81
2023/03/01 01:52:27;;;;;;;26.10;16.70;;;;;;;0.59;100.00;103107.75;4933660;29;19921;-81
2023/03/01 01:55:01;;;;;;;30.80;16.85;;;;;;;0.59;100.00;103110.50;4929478;29;20040;-80
2023/03/01 01:57:33;;;;;;;24.60;15.32;;;;;;;0.53;100.00;103104.09;4917869;29;20472;-81
2023/03/01 02:00:04;;;;;;;25.13;16.40;;;;;;;0.49;100.00;103102.94;4935428;29;20028;-80
2023/03/01 02:02:30;;;;;;;28.60;16.77;;;;;;;0.52;100.00;103093.31;4935927;29;20437;-81
2023/03/01 02:05:10;;;;;;;26.17;15.88;;;;;;;0.49;100.00;103091.09;4926006;29;20047;-81
2023/03/01 02:07:38;;;;;;;25.23;14.88;;;;;;;0.51;100.00;103088.91;4935787;29;20046;-80
2023/03/01 02:10:03;;;;;;;23.92;15.35;;;;;;;0.42;100.00;103095.94;4936807;29;20029;-81
2023/03/01 02:12:29;;;;;;;26.83;16.88;;;;;;;0.44;100.00;103093.75;4943578;29;20130;-80
2023/03/01 02:14:54;;;;;;;26.83;16.55;;;;;;;0.46;100.00;103078.63;4929579;29;20103;-80
2023/03/01 02:17:21;;;;;;;28.52;16.90;;;;;;;0.42;100.00;103080.25;4934019;29;20034;-81
2023/03/01 02:20:19;;;;;;;25.13;16.27;;;;;;;0.39;100.00;103086.28;4948156;29;20023;-80
2023/03/01 02:22:46;;;;;;;23.63;16.88;;;;;;;0.42;100.00;103085.75;4954289;29;20380;-80
2023/03/01 02:25:30;;;;;;;25.58;16.58;;;;;;;0.45;100.00;103085.25;4928725;29;20034;-80
2023/03/01 02:28:15;;;;;;;30.50;17.15;;;;;;;0.45;100.00;103092.69;4916558;29;20039;-80
2023/03/01 02:31:41;;;;;;;28.58;17.67;;;;;;;0.39;100.00;103086.28;4902663;29;20083;-81
2023/03/01 02:33:28;;;;;;;29.15;17.73;;;;;;;0.39;100.00;103080.75;4934668;29;20172;-80
2023/03/01 02:35:55;;;;;;;26.73;17.33;;;;;;;0.35;100.00;103085.94;4946035;28;20055;-80
2023/03/01 02:38:22;;;;;;;26.23;17.08;;;;;;;0.42;100.00;103080.25;4939912;28;20538;-81
2023/03/01 02:40:50;;;;;;;29.45;17.80;;;;;;;0.39;100.00;103083.50;4967360;28;20034;-81
2023/03/01 02:43:18;;;;;;;26.95;17.25;;;;;;;0.34;100.00;103076.03;4954331;29;20027;-81
2023/03/01 02:45:57;;;;;;;29.92;18.67;;;;;;;0.33;100.00;103068.00;4951641;29;20543;-80
2023/03/01 02:48:22;;;;;;;30.80;18.48;;;;;;;0.35;100.00;103072.16;4934861;29;20040;-80
2023/03/01 02:50:57;;;;;;;27.80;18.80;;;;;;;0.35;100.00;103063.06;4935013;29;20038;-80
2023/03/01 02:53:33;;;;;;;30.58;18.33;;;;;;;0.33;100.00;103059.75;4919858;29;20035;-81
2023/03/01 02:55:59;;;;;;;29.20;17.10;;;;;;;0.30;100.00;103049.25;4934079;29;20212;-80
2023/03/01 02:58:24;;;;;;;27.33;17.02;;;;;;;0.31;100.00;103056.41;4926826;29;20063;-80
2023/03/01 03:00:50;;;;;;;26.65;16.58;;;;;;;0.28;100.00;103040.41;4917364;29;20023;-80
2023/03/01 03:03:18;;;;;;;32.03;18.17;;;;;;;0.29;100.00;103039.28;4917326;29;20031;-80
2023/03/01 03:05:44;;;;;;;30.67;17.70;;;;;;;0.27;100.00;103045.06;4949583;28;20031;-80
2023/03/01 03:08:10;;;;;;;31.85;19.23;;;;;;;0.15;100.00;103047.94;4935337;29;20030;-80
2023/03/01 03:10:39;;;;;;;33.60;18.80;;;;;;;0.26;100.00;103059.09;4931700;29;20106;-80
2023/03/01 03:13:10;;;;;;;31.02;17.65;;;;;;;0.26;100.00;103042.56;4934199;29;20478;-81
2023/03/01 03:15:36;;;;;;;27.73;16.70;;;;;;;0.25;100.00;103046.41;4919309;29;20500;-80
2023/03/01 03:18:04;;;;;;;32.53;18.35;;;;;;;0.23;100.00;103046.66;4933950;29;20111;-80
2023/03/01 03:20:31;;;;;;;31.58;18.60;;;;;;;0.17;100.00;103039.44;4933819;29;20054;-80
2023/03/01 03:23:00;;;;;;;30.42;17.85;;;;;;;0.24;100.00;103039.25;4936006;29;20487;-80
2023/03/01 03:25:28;;;;;;;37.90;20.15;;;;;;;0.25;100.00;103032.63;4925027;29;20023;-80
2023/03/01 03:27:56;;;;;;;31.38;18.15;;;;;;;0.31;100.00;103034.38;4915295;29;20117;-80
2023/03/01 03:30:24;;;;;;;40.55;20.58;;;;;;;0.30;100.00;103035.47;4935405;29;20055;-80
2023/03/01 03:32:52;;;;;;;38.05;20.30;;;;;;;0.28;100.00;103029.38;4935336;29;20046;-80
2023/03/01 03:35:30;;;;;;;35.67;19.92;;;;;;;0.29;100.00;103020.84;4934799;29;20122;-79
2023/03/01 03:38:05;;;;;;;40.42;19.90;;;;;;;0.27;100.00;103027.69;4916488;29;20027;-80
2023/03/01 03:40:51;;;;;;;41.65;21.80;;;;;;;0.24;100.00;103025.47;4928455;29;20038;-80
2023/03/01 03:43:19;;;;;;;39.58;20.15;;;;;;;0.32;100.00;103033.28;4952595;29;20027;-81
2023/03/01 03:45:46;;;;;;;35.22;20.40;;;;;;;0.33;100.00;103026.69;4934851;29;20439;-80
2023/03/01 03:48:12;;;;;;;35.03;20.10;;;;;;;0.22;100.00;103035.91;4940691;28;20030;-80
2023/03/01 03:50:38;;;;;;;35.85;21.70;;;;;;;0.22;100.00;103030.41;4932200;29;20608;-80
2023/03/01 03:53:07;;;;;;;42.42;21.45;;;;;;;0.19;100.00;103035.31;4934303;29;20027;-80
2023/03/01 03:55:33;;;;;;;36.60;21.38;;;;;;;0.23;100.00;103037.56;4935473;29;20114;-80
2023/03/01 03:58:06;;;;;;;37.08;20.65;;;;;;;0.23;100.00;103032.06;4935130;29;20082;-80
2023/03/01 04:00:32;;;;;;;;;;;;;;;0.16;100.00;103035.81;4935357;29;20030;-80
2023/03/01 04:02:57;;;;;;;32.20;19.35;;;;;;;0.15;100.00;103027.84;4934136;29;19914;-79
2023/03/01 04:05:23;;;;;;;35.63;20.75;;;;;;;0.12;100.00;103031.91;4933656;29;20492;-81
2023/03/01 04:07:48;;;;;;;41.80;21.73;;;;;;;0.09;100.00;103037.94;4943603;29;20116;-80
2023/03/01 04:10:16;;;;;;;38.90;21.63;;;;;;;0.13;100.00;103047.34;4934773;29;20038;-80
2023/03/01 04:12:45;;;;;;;34.35;20.45;;;;;;;0.07;100.00;103040.09;4930976;29;20079;-80
2023/03/01 04:15:13;;;;;;;37.50;21.67;;;;;;;0.05;100.00;103046.97;4932970;29;20342;-80
2023/03/01 04:17:46;;;;;;;34.22;20.92;;;;;;;0.05;100.00;103047.78;4934656;29;20038;-80
2023/03/01 04:20:17;;;;;;;34.03;19.40;;;;;;;0.01;100.00;103046.63;4927989;29;20534;-80
2023/03/01 04:22:46;;;;;;;30.67;19.63;;;;;;;-0.04;100.00;103044.63;4933903;29;20035;-80
2023/03/01 04:25:13;;;;;;;32.20;20.42;;;;;;;-0.05;100.00;103039.38;4931077;29;20032;-80
2023/03/01 04:27:39;;;;;;;34.92;22.65;;;;;;;0.00;100.00;103050.47;4931995;29;20036;-80
2023/03/01 04:30:06;;;;;;;35.17;19.88;;;;;;;-0.06;100.00;103037.72;4934193;28;20436;-79
2023/03/01 04:32:31;;;;;;;30.33;18.75;;;;;;;-0.14;100.00;103038.16;4940063;29;20514;-80
2023/03/01 04:34:57;;;;;;;39.05;19.33;;;;;;;-0.18;100.00;103048.81;4931292;29;20032;-80
2023/03/01 04:37:27;;;;;;;29.88;17.50;;;;;;;-0.28;100.00;103041.22;4918806;29;20117;-79
2023/03/01 04:39:52;;;;;;;36.28;19.23;;;;;;;-0.14;100.00;103038.16;4950200;28;20167;-80
2023/03/01 04:42:18;;;;;;;33.15;17.65;;;;;;;-0.19;100.00;103036.16;4951647;29;20498;-79
2023/03/01 04:44:44;;;;;;;31.45;16.67;;;;;;;-0.15;100.00;103036.47;4934585;29;20408;-79
2023/03/01 04:47:10;;;;;;;35.35;17.40;;;;;;;-0.28;100.00;103038.47;4931202;29;20032;-79
2023/03/01 04:49:35;;;;;;;25.80;16.67;;;;;;;-0.22;100.00;103023.72;4931277;29;20114;-80
2023/03/01 04:52:03;;;;;;;31.48;17.33;;;;;;;-0.27;100.00;103020.91;4944964;29;20069;-79
2023/03/01 04:54:30;;;;;;;32.03;16.15;;;;;;;-0.32;100.00;103020.78;4933395;29;20023;-79
2023/03/01 04:56:55;;;;;;;26.10;16.50;;;;;;;-0.26;100.00;103007.97;4933911;29;20061;-80
2023/03/01 04:59:23;;;;;;;31.55;16.52;;;;;;;-0.35;100.00;102999.31;4951874;28;20067;-79
2023/03/01 05:01:49;;;;;;;31.45;17.35;;;;;;;-0.31;100.00;102992.22;4934505;29;20030;-80
2023/03/01 05:04:15;;;;;;;32.08;16.35;;;;;;;-0.28;100.00;102994.44;4933036;28;20491;-80
2023/03/01 05:06:41;;;;;;;30.77;16.67;;;;;;;-0.43;100.00;102994.22;4934487;29;20019;-79
2023/03/01 05:09:06;;;;;;;25.90;16.73;;;;;;;-0.41;100.00;102994.81;4934047;29;20458;-79
2023/03/01 05:11:35;;;;;;;27.20;15.50;;;;;;;-0.41;100.00;102987.38;4930502;29;20480;-81
2023/03/01 05:14:05;;;;;;;26.48;17.65;;;;;;;-0.36;100.00;102986.59;4932646;28;20079;-80
2023/03/01 05:16:31;;;;;;;24.80;15.73;;;;;;;-0.42;100.00;102984.91;4926657;29;20035;-80
2023/03/01 05:18:57;;;;;;;21.27;14.45;;;;;;;-0.47;100.00;102984.81;4934281;29;20078;-79
2023/03/01 05:21:23;;;;;;;25.25;14.02;;;;;;;-0.47;100.00;102984.81;4932085;29;20035;-79
2023/03/01 05:23:48;;;;;;;28.02;16.00;;;;;;;-0.41;100.00;102981.03;4934382;29;20031;-79
2023/03/01 05:26:15;;;;;;;23.77;15.10;;;;;;;-0.49;100.00;102981.47;4934259;29;20039;-79
2023/03/01 05:28:40;;;;;;;22.20;14.27;;;;;;;-0.43;100.00;102974.97;4933108;29;20034;-79
2023/03/01 05:31:09;;;;;;;23.77;15.20;;;;;;;-0.50;100.00;102974.31;4932641;29;20023;-80
2023/03/01 05:33:36;;;;;;;23.35;14.70;;;;;;;-0.56;100.00;102976.13;4952026;29;20054;-79
2023/03/01 05:36:02;;;;;;;24.95;15.43;;;;;;;-0.51;100.00;102976.22;4937223;29;20194;-79
2023/03/01 05:38:27;;;;;;;22.80;14.50;;;;;;;-0.59;100.00;102964.78;4918779;29;20456;-79
2023/03/01 05:40:53;;;;;;;20.60;13.98;;;;;;;-0.56;100.00;102975.31;4937609;29;20026;-79
2023/03/01 05:43:18;;;;;;;26.40;14.07;;;;;;;-0.64;100.00;102971.88;4955117;29;20023;-79
2023/03/01 05:45:44;;;;;;;19.98;13.90;;;;;;;-0.59;100.00;102964.78;4933527;29;20032;-79
2023/03/01 05:48:11;;;;;;;17.67;13.70;;;;;;;-0.60;100.00;102969.47;4934425;29;20132;-79
2023/03/01 05:50:42;;;;;;;19.52;13.15;;;;;;;-0.73;100.00;102956.91;4934240;29;20063;-79
2023/03/01 05:53:11;;;;;;;21.83;13.60;;;;;;;-0.75;100.00;102949.97;4937604;29;20029;-79
2023/03/01 05:55:38;;;;;;;19.60;13.18;;;;;;;-0.72;100.00;102953.03;4954967;28;20041;-79
2023/03/01 05:58:06;;;;;;;20.58;13.38;;;;;;;-0.68;100.00;102954.22;4930177;29;20369;-79
2023/03/01 06:00:32;;;;;;;21.90;14.75;;;;;;;-0.67;100.00;102958.66;4918360;29;20473;-79
2023/03/01 06:03:01;;;;;;;20.25;14.15;;;;;;;-0.65;100.00;102958.41;4918706;29;20404;-79
2023/03/01 06:05:27;;;;;;;20.33;13.90;;;;;;;-0.66;100.00;102964.97;4927424;29;20031;-79
2023/03/01 06:07:53;;;;;;;20.75;14.23;;;;;;;-0.76;100.00;102965.66;4929065;29;20480;-79
2023/03/01 06:10:20;;;;;;;19.65;13.07;;;;;;;-0.72;100.00;102965.97;4934926;29;20024;-79
2023/03/01 06:12:46;;;;;;;21.60;13.70;;;;;;;-0.75;100.00;102961.81;4954466;29;20476;-79
2023/03/01 06:15:15;;;;;;;21.92;12.88;;;;;;;-0.73;100.00;102965.16;4937168;29;20051;-79
2023/03/01 06:17:42;;;;;;;19.92;13.77;;;;;;;-0.75;100.00;102958.22;4937635;29;20028;-79
2023/03/01 06:20:14;;;;;;;19.65;13.75;;;;;;;-0.80;100.00;102952.63;4936955;29;20079;-79
2023/03/01 06:22:40;;;;;;;20.20;13.90;;;;;;;-0.78;100.00;102950.47;4931238;29;20322;-79
2023/03/01 06:25:07;;;;;;;16.83;12.57;;;;;;;-0.79;100.00;102954.31;4932657;29;20047;-79
2023/03/01 06:27:32;;;;;;;17.30;13.18;;;;;;;-0.75;100.00;102961.81;4917151;29;20046;-80
2023/03/01 06:29:58;;;;;;;17.98;13.07;;;;;;;-0.81;100.00;102960.06;4917276;29;20480;-79
2023/03/01 06:32:23;;;;;;;18.50;12.93;;;;;;;-0.80;100.00;102958.13;4943399;28;20027;-79
2023/03/01 06:34:49;;;;;;;19.05;13.60;;;;;;;-0.91;100.00;102949.72;4950870;28;20020;-79
2023/03/01 06:37:15;;;;;;;18.80;13.38;;;;;;;-0.95;100.00;102959.56;4926024;29;20055;-79
2023/03/01 06:39:40;;;;;;;19.92;14.25;;;;;;;-0.96;100.00;102957.06;4945091;23;20143;-79
2023/03/01 06:42:07;;;;;;;19.30;13.13;;;;;;;-0.92;100.00;102969.22;4897843;29;20028;-79
2023/03/01 06:44:33;;;;;;;18.38;13.23;;;;;;;-0.91;100.00;102963.47;4893616;29;20127;-79
2023/03/01 06:46:59;;;;;;;17.50;12.90;;;;;;;-1.06;100.00;102965.94;4898249;29;20110;-79
2023/03/01 06:49:24;;;;;;;17.88;13.00;;;;;;;-0.93;100.00;102976.63;4901290;29;20041;-79
2023/03/01 06:51:49;;;;;;;19.38;12.85;;;;;;;-0.94;100.00;102969.47;4907088;29;20074;-79
2023/03/01 06:54:15;;;;;;;18.65;14.18;;;;;;;-0.92;100.00;102985.72;4898593;29;20035;-79
2023/03/01 06:56:40;;;;;;;16.95;12.60;;;;;;;-0.92;100.00;102977.47;4892143;29;20033;-79
2023/03/01 06:59:05;;;;;;;15.73;12.32;;;;;;;-0.94;100.00;102979.63;4888729;29;20091;-78
2023/03/01 07:01:31;;;;;;;16.55;12.15;;;;;;;-0.94;100.00;102985.97;4896544;29;20028;-79
2023/03/01 07:03:57;;;;;;;20.00;12.82;;;;;;;-0.89;100.00;102979.72;4895988;29;20028;-79
2023/03/01 07:06:23;;;;;;;19.13;14.07;;;;;;;-0.93;100.00;102986.78;4875871;29;20119;-79
2023/03/01 07:08:48;;;;;;;21.08;14.07;;;;;;;-0.91;100.00;102984.63;4875913;29;20085;-79
2023/03/01 07:11:14;;;;;;;20.42;14.85;;;;;;;-0.90;100.00;102984.38;4881834;29;20037;-79
2023/03/01 07:13:40;;;;;;;19.92;13.63;;;;;;;-0.87;100.00;102983.06;4886086;29;20041;-79
2023/03/01 07:16:05;;;;;;;21.77;14.18;;;;;;;-0.88;100.00;102981.41;4893496;29;20496;-79
2023/03/01 07:18:31;;;;;;;23.85;14.65;;;;;;;-0.86;100.00;102981.97;4895856;29;20059;-79
2023/03/01 07:20:56;;;;;;;20.02;14.25;;;;;;;-0.89;100.00;102983.28;4892608;29;20024;-79
2023/03/01 07:23:21;;;;;;;21.45;14.25;;;;;;;-0.80;100.00;102991.13;4870078;29;20028;-79
2023/03/01 07:25:54;;;;;;;19.60;14.10;;;;;;;-0.83;100.00;102986.97;4860706;29;20025;-79
2023/03/01 07:28:19;;;;;;;23.70;15.13;;;;;;;-0.80;100.00;102981.00;4885085;29;20032;-78
2023/03/01 07:30:45;;;;;;;21.52;14.25;;;;;;;-0.79;100.00;102990.88;4900696;29;20116;-79
2023/03/01 07:33:10;;;;;;;21.65;14.52;;;;;;;-0.82;100.00;102992.22;4894379;29;20460;-79
2023/03/01 07:35:36;;;;;;;20.27;14.40;;;;;;;-0.79;100.00;102998.31;4893317;29;20158;-79
2023/03/01 07:38:01;;;;;;;23.30;14.27;;;;;;;-0.84;100.00;102999.88;4860716;29;20438;-79
2023/03/01 07:40:26;;;;;;;21.63;13.88;;;;;;;-0.81;100.00;102993.06;4889227;29;20052;-79
2023/03/01 07:42:56;;;;;;;20.45;14.50;;;;;;;-0.80;100.00;102994.75;4897698;29;20028;-79
2023/03/01 07:45:21;;;;;;;21.95;15.02;;;;;;;-0.89;100.00;102990.72;4898017;29;20493;-78
2023/03/01 07:47:47;;;;;;;23.15;15.65;;;;;;;-0.76;100.00;102987.66;4893176;29;20103;-78
2023/03/01 07:50:13;;;;;;;21.98;15.10;;;;;;;-0.79;100.00;102996.38;4894635;29;20055;-78
2023/03/01 07:52:38;;;;;;;23.05;14.45;;;;;;;-0.72;100.00;102987.97;4911441;29;20532;-79
2023/03/01 07:55:04;;;;;;;23.92;17.15;;;;;;;-0.73;100.00;102995.41;4913687;29;20028;-78
2023/03/01 07:57:30;;;;;;;25.88;15.77;;;;;;;-0.67;100.00;102991.66;4897348;29;20028;-78
2023/03/01 07:59:55;;;;;;;24.00;15.45;;;;;;;-0.68;100.00;102995.47;4898208;29;20179;-79
2023/03/01 08:02:20;;;;;;;25.10;16.42;;;;;;;-0.64;100.00;102999.38;4894309;29;20051;-79
2023/03/01 08:04:46;;;;;;;28.60;17.10;;;;;;;-0.64;100.00;102993.06;4902555;29;20102;-79
2023/03/01 08:07:11;;;;;;;29.27;17.15;;;;;;;-0.62;100.00;102993.66;4905200;29;20239;-78
2023/03/01 08:09:37;;;;;;;26.20;16.85;;;;;;;-0.55;100.00;102997.03;4907894;29;20058;-79
2023/03/01 08:12:04;;;;;;;24.65;15.55;;;;;;;-0.51;100.00;102989.13;4890040;29;20036;-79
2023/03/01 08:14:30;;;;;;;24.40;16.27;;;;;;;-0.54;100.00;102984.16;4906415;29;20020;-79
2023/03/01 08:16:55;;;;;;;31.92;17.88;;;;;;;-0.47;100.00;102977.38;4893791;29;20028;-79
2023/03/01 08:19:21;;;;;;;28.90;19.45;;;;;;;-0.49;100.00;102975.97;4901577;29;20024;-79
2023/03/01 08:21:46;;;;;;;26.83;16.85;;;;;;;-0.42;100.00;102976.63;4895228;29;20067;-78
2023/03/01 08:24:11;;;;;;;29.25;17.38;;;;;;;-0.36;100.00;102972.03;4906102;29;20028;-79
2023/03/01 08:26:37;;;;;;;27.35;16.90;;;;;;;-0.43;100.00;102964.78;4915668;29;20494;-79
2023/03/01 08:29:03;;;;;;;26.55;17.13;;;;;;;-0.33;100.00;102961.34;4912696;29;20170;-79
2023/03/01 08:31:30;;;;;;;29.35;18.40;;;;;;;-0.37;100.00;102960.19;4910601;29;20035;-78
2023/03/01 08:33:59;;;;;;;32.28;18.50;;;;;;;-0.31;100.00;102956.44;4895205;29;20028;-78
2023/03/01 08:36:26;;;;;;;33.17;20.10;;;;;;;-0.30;100.00;102958.09;4893916;29;20032;-79
2023/03/01 08:38:52;;;;;;;34.35;20.52;;;;;;;-0.34;100.00;102956.91;4890613;29;20031;-79
2023/03/01 08:41:18;;;;;;;28.52;19.67;;;;;;;-0.22;100.00;102963.16;4887755;29;20035;-79
2023/03/01 08:43:43;;;;;;;32.22;19.38;;;;;;;-0.23;100.00;102958.75;4909794;29;20056;-78
2023/03/01 08:46:09;;;;;;;33.83;19.58;;;;;;;-0.28;100.00;102966.91;4903422;29;20381;-79
2023/03/01 08:48:35;;;;;;;33.80;20.20;;;;;;;-0.28;100.00;102961.41;4907472;29;20032;-79
2023/03/01 08:51:12;;;;;;;31.05;19.35;;;;;;;-0.15;100.00;102960.22;4896740;29;20028;-79
2023/03/01 08:53:38;;;;;;;34.00;19.50;;;;;;;-0.13;100.00;102957.22;4913362;29;20099;-79
2023/03/01 08:56:03;;;;;;;28.73;18.80;;;;;;;-0.19;100.00;102950.84;4897397;29;20073;-78
2023/03/01 08:58:29;;;;;;;34.72;20.08;;;;;;;-0.28;100.00;102944.91;4892909;29;20516;-79
2023/03/01 09:00:56;;;;;;;35.15;21.63;;;;;;;-0.17;100.00;102945.88;4894707;29;20028;-79
2023/03/01 09:03:23;;;;;;;34.63;20.02;;;;;;;-0.12;100.00;102947.91;4896217;29;20024;-78
2023/03/01 09:05:50;;;;;;;36.15;19.13;;;;;;;-0.06;100.00;102952.38;4913405;29;20131;-79
2023/03/01 09:08:16;;;;;;;33.38;19.23;;;;;;;-0.05;100.00;102957.59;4902566;29;20032;-79
2023/03/01 09:10:41;;;;;;;36.28;19.10;;;;;;;-0.10;100.00;102959.47;4900455;29;20030;-79
2023/03/01 09:13:07;;;;;;;34.63;20.92;;;;;;;-0.28;100.00;102961.41;4913897;29;20430;-79
2023/03/01 09:15:33;;;;;;;35.97;21.63;;;;;;;-0.25;100.00;102952.66;4900334;29;20565;-79
2023/03/01 09:17:58;;;;;;;39.05;21.42;;;;;;;-0.16;100.00;102952.25;4900194;29;20036;-79
2023/03/01 09:20:24;;;;;;;34.95;21.30;;;;;;;-0.05;100.00;102954.03;4898554;29;20035;-79
2023/03/01 09:22:49;;;;;;;34.10;20.55;;;;;;;-0.13;100.00;102951.72;4936354;29;20432;-79
2023/03/01 09:25:15;;;;;;;34.88;21.08;;;;;;;0.01;100.00;102947.50;4917224;29;20059;-78
2023/03/01 09:27:40;;;;;;;31.58;20.13;;;;;;;-0.03;100.00;102949.09;4914801;29;20480;-79
2023/03/01 09:30:06;;;;;;;30.80;18.65;;;;;;;0.09;100.00;102938.81;4913846;29;20070;-79
2023/03/01 09:32:32;;;;;;;31.42;19.63;;;;;;;0.10;100.00;102940.44;4899809;29;20028;-78
2023/03/01 09:35:06;;;;;;;30.00;19.23;;;;;;;0.20;100.00;102935.06;4905595;29;20441;-79
2023/03/01 09:37:34;;;;;;;28.48;18.50;;;;;;;0.31;100.00;102935.19;4896664;29;20335;-79
2023/03/01 09:39:59;;;;;;;32.85;18.98;;;;;;;0.27;100.00;102934.03;4904127;29;20501;-79
2023/03/01 09:42:27;;;;;;;28.55;18.02;;;;;;;0.36;100.00;102936.09;4896590;29;20035;-79
2023/03/01 09:45:03;;;;;;;28.73;16.60;;;;;;;0.68;100.00;102934.50;4901063;29;20548;-79
2023/03/01 09:47:34;;;;;;;29.05;17.67;;;;;;;1.09;100.00;102935.69;4899185;29;20092;-79
2023/03/01 09:50:06;;;;;;;24.38;15.50;;;;;;;1.05;100.00;102931.78;4896640;29;20052;-79
2023/03/01 09:52:42;;;;;;;26.73;15.40;;;;;;;1.00;100.00;102926.25;4907743;29;20032;-79
2023/03/01 09:55:14;;;;;;;23.65;14.07;;;;;;;1.18;100.00;102927.75;4904234;29;20040;-79
2023/03/01 09:57:59;;;;;;;21.92;13.02;;;;;;;1.14;100.00;102921.09;4896397;29;20033;-79
2023/03/01 10:00:47;;;;;;;21.02;11.90;;;;;;;1.37;100.00;102920.75;4912244;29;20024;-80
2023/03/01 10:03:36;;;;;;;17.33;9.20;;;;;;;1.54;100.00;102919.72;4897014;29;20127;-80
2023/03/01 10:06:08;;;;;;;23.13;9.05;;;;;;;1.66;100.00;102917.59;4900010;29;20131;-80
2023/03/01 10:08:49;;;;;;;12.70;8.07;;;;;;;1.80;100.00;102910.50;4913228;29;20028;-80
2023/03/01 10:11:24;;;;;;;12.45;7.03;;;;;;;1.74;100.00;102908.81;4912326;29;20032;-80
2023/03/01 10:14:09;;;;;;;14.25;7.75;;;;;;;2.14;99.84;102907.34;4908454;29;20075;-80
2023/03/01 10:16:51;;;;;;;11.38;6.95;;;;;;;2.18;98.92;102908.44;4912737;29;20067;-80
2023/03/01 10:19:42;;;;;;;9.13;5.43;;;;;;;2.47;93.26;102910.75;4934266;29;20059;-80
2023/03/01 10:22:21;;;;;;;10.70;6.53;;;;;;;2.74;89.56;102912.44;4905067;29;20040;-80
2023/03/01 10:24:47;;;;;;;11.98;6.22;;;;;;;2.81;88.88;102910.25;4897403;29;20050;-80
2023/03/01 10:27:25;;;;;;;10.13;6.18;;;;;;;2.76;91.52;102907.47;4880203;29;20029;-80
2023/03/01 10:30:20;;;;;;;8.18;6.25;;;;;;;2.71;93.09;102910.25;4896527;29;20025;-80
2023/03/01 10:32:50;;;;;;;10.57;5.60;;;;;;;2.65;91.04;102912.97;4898907;29;20444;-81
2023/03/01 10:35:26;;;;;;;9.40;6.38;;;;;;;3.07;89.22;102918.56;4896198;29;20075;-81
2023/03/01 10:38:11;;;;;;;10.70;5.47;;;;;;;2.94;91.48;102914.41;4899719;29;20124;-81
2023/03/01 10:41:09;;;;;;;10.18;5.43;;;;;;;3.03;89.17;102912.75;4907234;29;20378;-81
2023/03/01 10:43:51;;;;;;;9.68;5.70;;;;;;;3.39;86.48;102908.00;4897536;29;20402;-81
2023/03/01 10:46:32;;;;;;;8.52;6.78;;;;;;;3.60;86.60;102910.72;4879260;29;20028;-81
2023/03/01 10:49:18;;;;;;;9.85;6.50;;;;;;;3.43;86.60;102900.78;4927242;29;20027;-82
2023/03/01 10:51:46;;;;;;;12.07;6.32;;;;;;;3.54;85.57;102898.00;4900942;29;20509;-81
2023/03/01 10:54:23;;;;;;;8.00;5.63;;;;;;;3.35;87.44;102898.63;4908647;29;20610;-81
2023/03/01 10:56:55;;;;;;;8.15;4.72;;;;;;;3.37;85.98;102896.41;4879123;29;20032;-82
2023/03/01 10:59:34;;;;;;;9.95;5.18;;;;;;;3.38;86.12;102898.03;4894673;29;20024;-82
2023/03/01 11:02:36;;;;;;;9.18;4.60;;;;;;;3.41;86.66;102880.88;4910500;29;20040;-82
2023/03/01 11:05:13;;;;;;;9.25;5.40;;;;;;;3.63;85.99;102888.03;4855495;29;20064;-81
2023/03/01 11:07:53;;;;;;;7.57;5.15;;;;;;;4.00;81.01;102876.50;4906154;29;20103;-82
2023/03/01 11:10:36;;;;;;;10.40;4.90;;;;;;;3.74;84.28;102873.03;4904555;29;20063;-82
2023/03/01 11:13:17;;;;;;;7.80;5.28;;;;;;;3.65;83.12;102881.09;4883179;29;20119;-82
2023/03/01 11:15:58;;;;;;;7.68;5.07;;;;;;;3.75;81.74;102879.41;4912182;29;20119;-82
2023/03/01 11:18:31;;;;;;;6.20;4.53;;;;;;;3.53;82.84;102872.25;4891328;29;20180;-83